Time;durP1;ratioP1;P1;durP2;ratioP2;P2;SDS_P1;SDS_P2;PMS_P1;PMS_P2;Temp;Humidity;BMP_temperature;BMP_pressure;BME280_temperature;BME280_humidity;BME280_pressure;Samples;Min_cycle;Max_cycle;Signal;HPM_P1;HPM_P2
2023/09/28 07:09:13;;;;;;;10.00;4.15;;;;;;;14.92;82.53;96866.53;2081904;28;20554;-64
2023/09/28 07:10:15;;;;;;;8.27;3.70;;;;;;;15.31;82.38;96871.25;2079448;28;20284;-64
2023/09/28 07:11:19;;;;;;;5.93;3.30;;;;;;;15.69;80.49;96869.81;2083074;28;20284;-64
2023/09/28 07:12:22;;;;;;;7.95;3.90;;;;;;;15.97;79.50;96871.63;2078708;28;20709;-65
2023/09/28 07:13:23;;;;;;;7.50;4.57;;;;;;;16.13;78.17;96865.38;2074954;28;20201;-64
2023/09/28 07:14:25;;;;;;;8.30;3.80;;;;;;;15.98;79.07;96860.13;2075352;28;20281;-65
2023/09/28 07:15:29;;;;;;;10.23;4.20;;;;;;;16.28;78.36;96863.56;2075119;28;20197;-64
2023/09/28 07:16:30;;;;;;;11.75;3.83;;;;;;;16.88;77.24;96864.91;2090160;28;20204;-64
2023/09/28 07:17:33;;;;;;;9.23;3.55;;;;;;;17.65;74.74;96866.78;2089181;28;20224;-64
2023/09/28 07:18:36;;;;;;;15.68;3.58;;;;;;;18.27;72.91;96868.59;2074327;28;20197;-64
2023/09/28 07:19:37;;;;;;;14.27;3.75;;;;;;;19.33;69.31;96866.16;2075954;28;20879;-65
2023/09/28 07:20:38;;;;;;;6.38;3.40;;;;;;;19.82;67.16;96878.25;2077170;28;20209;-65
2023/09/28 07:21:40;;;;;;;9.57;3.97;;;;;;;19.92;66.24;96881.00;2077111;28;20197;-65
2023/09/28 07:22:41;;;;;;;9.32;3.45;;;;;;;20.17;65.17;96876.41;2074955;28;20835;-65
2023/09/28 07:23:43;;;;;;;11.25;4.20;;;;;;;20.40;64.90;96879.84;2076654;28;20197;-66
2023/09/28 07:24:44;;;;;;;10.35;3.75;;;;;;;20.30;65.08;96889.53;2075378;28;20616;-65
2023/09/28 07:25:46;;;;;;;6.75;3.70;;;;;;;19.82;66.31;96887.97;2070797;28;20205;-65
2023/09/28 07:26:47;;;;;;;17.30;3.80;;;;;;;20.30;65.53;96890.38;2071037;28;20296;-65
2023/09/28 07:27:52;;;;;;;8.38;3.85;;;;;;;20.85;63.82;96898.34;2073354;28;20255;-65
2023/09/28 07:28:54;;;;;;;9.95;5.00;;;;;;;20.59;64.26;96896.94;2073294;28;20206;-65
2023/09/28 07:29:56;;;;;;;9.00;3.97;;;;;;;19.87;65.57;96905.22;2073246;28;20205;-66
2023/09/28 07:30:58;;;;;;;9.88;4.15;;;;;;;19.48;66.68;96912.63;2073329;28;20262;-65
2023/09/28 07:31:59;;;;;;;9.90;4.95;;;;;;;19.63;65.60;96918.56;2073048;28;20656;-65
2023/09/28 07:33:01;;;;;;;15.25;5.10;;;;;;;19.84;65.81;96923.16;2074262;28;20201;-65
2023/09/28 07:34:03;;;;;;;11.05;4.28;;;;;;;19.86;64.70;96915.97;2075149;28;20802;-65
2023/09/28 07:35:05;;;;;;;25.48;4.30;;;;;;;20.36;63.61;96919.03;2075598;28;20193;-65
2023/09/28 07:36:07;;;;;;;9.40;4.13;;;;;;;20.75;63.58;96915.97;2073090;28;20758;-65
2023/09/28 07:37:08;;;;;;;9.35;4.35;;;;;;;20.76;62.49;96919.47;2072366;28;20202;-65
2023/09/28 07:38:10;;;;;;;18.27;4.57;;;;;;;20.69;63.06;96906.66;2073152;28;20285;-67
2023/09/28 07:39:11;;;;;;;18.65;5.10;;;;;;;20.54;64.53;96918.53;2072519;28;20236;-67
2023/09/28 07:40:15;;;;;;;9.50;4.25;;;;;;;20.74;63.97;96905.50;2073957;28;20194;-67
2023/09/28 07:41:19;;;;;;;7.55;4.32;;;;;;;21.07;62.24;96911.66;2075276;28;20213;-67
2023/09/28 07:42:21;;;;;;;8.20;4.30;;;;;;;22.20;59.67;96908.25;2070026;28;20228;-68
2023/09/28 07:43:22;;;;;;;15.32;4.03;;;;;;;22.53;58.98;96905.44;2070673;28;20198;-67
2023/09/28 07:44:23;;;;;;;10.63;4.68;;;;;;;21.76;60.40;96912.94;2073995;28;20201;-67
2023/09/28 07:45:25;;;;;;;7.20;3.72;;;;;;;21.59;61.23;96896.63;2073382;28;20194;-66
2023/09/28 07:46:27;;;;;;;11.82;4.32;;;;;;;21.43;61.00;96902.38;2072617;28;20586;-66
2023/09/28 07:47:28;;;;;;;6.18;3.50;;;;;;;21.79;61.05;96899.41;2074172;28;20729;-66
2023/09/28 07:48:30;;;;;;;12.27;4.10;;;;;;;21.87;60.41;96904.06;2070557;28;20208;-66
2023/09/28 07:49:32;;;;;;;7.00;3.55;;;;;;;21.78;60.45;96897.72;2070733;28;20280;-66
2023/09/28 07:50:33;;;;;;;12.20;4.03;;;;;;;22.49;58.96;96899.53;2073029;28;20194;-69
2023/09/28 07:51:34;;;;;;;9.88;3.83;;;;;;;23.20;57.21;96901.16;2074534;28;20696;-69
2023/09/28 07:52:36;;;;;;;6.65;3.65;;;;;;;23.36;56.83;96903.22;2075957;28;20233;-69
2023/09/28 07:53:38;;;;;;;8.70;2.95;;;;;;;23.01;56.75;96904.63;2072318;28;20255;-70
2023/09/28 07:54:39;;;;;;;11.13;3.92;;;;;;;23.41;56.28;96900.13;2074135;28;20239;-67
2023/09/28 07:55:41;;;;;;;6.70;3.30;;;;;;;24.08;54.17;96895.59;2075081;28;20588;-67
2023/09/28 07:56:42;;;;;;;8.00;2.90;;;;;;;24.18;53.54;96905.41;2077154;28;20420;-68
2023/09/28 07:57:44;;;;;;;9.10;3.57;;;;;;;24.37;53.46;96905.28;2070220;28;20546;-68
2023/09/28 07:58:48;;;;;;;4.60;3.10;;;;;;;24.90;52.25;96895.72;2070985;28;20760;-68
2023/09/28 07:59:54;;;;;;;10.60;3.43;;;;;;;24.80;52.74;96905.63;2074618;28;20779;-68
2023/09/28 08:00:56;;;;;;;10.93;3.73;;;;;;;25.62;50.77;96905.47;2071135;28;20439;-69
2023/09/28 08:01:58;;;;;;;6.83;3.60;;;;;;;25.61;51.45;96901.16;2070777;28;20949;-68
2023/09/28 08:03:00;;;;;;;7.93;3.17;;;;;;;25.23;51.11;96898.66;2074287;28;20785;-68
2023/09/28 08:04:02;;;;;;;5.87;3.40;;;;;;;25.51;51.39;96895.03;2073999;28;20423;-69
2023/09/28 08:05:04;;;;;;;9.70;3.03;;;;;;;25.93;50.32;96905.03;2073571;28;20423;-68
2023/09/28 08:06:05;;;;;;;8.17;3.37;;;;;;;26.37;49.81;96901.38;2075494;28;20914;-69
2023/09/28 08:07:07;;;;;;;6.20;3.50;;;;;;;26.54;49.50;96896.94;2075013;28;20477;-69
2023/09/28 08:08:08;;;;;;;6.23;3.23;;;;;;;26.70;48.00;96896.13;2073887;28;20461;-69
2023/09/28 08:09:19;;;;;;;6.20;3.53;;;;;;;26.61;47.90;96900.63;2074585;28;20993;-68
2023/09/28 08:10:22;;;;;;;4.57;3.57;;;;;;;26.35;49.04;96888.16;2073455;28;20444;-68
2023/09/28 08:11:24;;;;;;;4.67;3.30;;;;;;;26.77;48.05;96893.69;2073978;28;20909;-68
2023/09/28 08:12:26;;;;;;;7.17;2.90;;;;;;;27.04;46.64;96890.66;2071653;28;20945;-68
2023/09/28 08:13:27;;;;;;;6.40;3.50;;;;;;;26.88;46.74;96883.47;2072023;28;20450;-69
2023/09/28 08:14:29;;;;;;;5.40;3.07;;;;;;;27.00;46.52;96888.50;2072887;28;20427;-68
2023/09/28 08:15:30;;;;;;;10.30;3.10;;;;;;;27.04;46.96;96888.00;2076085;28;20428;-68
2023/09/28 08:16:43;;;;;;;5.87;2.83;;;;;;;27.15;47.64;96891.38;2075360;28;20525;-69
2023/09/28 08:17:47;;;;;;;4.83;3.30;;;;;;;26.63;48.14;96881.72;2074102;28;20459;-69
2023/09/28 08:18:49;;;;;;;4.80;3.27;;;;;;;26.76;48.37;96889.31;2074375;28;20480;-69
2023/09/28 08:19:51;;;;;;;4.80;2.87;;;;;;;26.31;50.30;96886.81;2073870;28;20461;-69
2023/09/28 08:20:52;;;;;;;7.23;3.57;;;;;;;26.56;49.42;96890.41;2066878;28;20869;-68
2023/09/28 08:22:10;;;;;;;4.50;2.60;;;;;;;26.96;48.18;96890.69;2067406;28;20427;-69
2023/09/28 08:23:11;;;;;;;3.63;2.80;;;;;;;27.56;47.04;96888.69;2067131;28;20495;-68
2023/09/28 08:24:17;;;;;;;7.73;2.83;;;;;;;27.58;46.57;96897.41;2069699;28;20788;-68
2023/09/28 08:25:22;;;;;;;5.07;2.87;;;;;;;28.31;45.09;96897.41;2069502;28;21062;-69
2023/09/28 08:26:23;;;;;;;4.60;2.80;;;;;;;28.63;44.80;96907.16;2066981;28;20464;-68
2023/09/28 08:27:25;;;;;;;5.17;2.70;;;;;;;28.66;44.16;96895.22;2070559;28;20458;-68
2023/09/28 08:28:26;;;;;;;5.00;2.73;;;;;;;28.91;44.96;96900.44;2072632;28;20883;-68
2023/09/28 08:29:28;;;;;;;7.20;3.40;;;;;;;28.84;44.24;96903.84;2068464;28;20466;-68
2023/09/28 08:30:32;;;;;;;4.23;2.77;;;;;;;29.32;43.19;96902.88;2067706;28;20490;-68
2023/09/28 08:31:34;;;;;;;5.77;2.90;;;;;;;29.37;42.78;96900.47;2067833;28;20424;-68
2023/09/28 08:32:35;;;;;;;3.53;2.63;;;;;;;28.74;42.92;96900.56;2068557;28;20452;-68
2023/09/28 08:33:37;;;;;;;4.80;2.60;;;;;;;29.12;42.48;96906.00;2066695;28;20837;-68
2023/09/28 08:34:39;;;;;;;5.20;2.60;;;;;;;28.91;42.35;96903.13;2070214;28;20430;-68
2023/09/28 08:35:46;;;;;;;5.67;3.13;;;;;;;28.63;42.41;96906.28;2068347;28;20518;-68
2023/09/28 08:36:48;;;;;;;5.40;2.87;;;;;;;29.08;41.99;96907.38;2071946;28;20442;-68
2023/09/28 08:37:51;;;;;;;4.43;2.77;;;;;;;28.71;41.81;96903.59;2070788;28;20459;-68
2023/09/28 08:38:54;;;;;;;5.37;2.90;;;;;;;28.32;42.31;96904.44;2071908;28;20427;-68
2023/09/28 08:39:57;;;;;;;12.10;3.00;;;;;;;28.59;42.00;96899.59;2067544;28;20420;-68
2023/09/28 08:41:00;;;;;;;5.67;2.80;;;;;;;28.92;42.02;96902.94;2067435;28;20462;-68
2023/09/28 08:42:04;;;;;;;10.47;4.23;;;;;;;28.98;43.21;96901.41;2067263;28;20517;-69
2023/09/28 08:43:10;;;;;;;10.50;3.47;;;;;;;29.05;43.11;96902.38;2067722;28;20458;-68
2023/09/28 08:44:13;;;;;;;5.00;3.10;;;;;;;28.68;45.61;96903.94;2065511;28;20896;-68
2023/09/28 08:45:16;;;;;;;13.37;3.10;;;;;;;29.30;44.20;96911.09;2065484;28;20435;-68
2023/09/28 08:46:20;;;;;;;5.80;3.10;;;;;;;28.90;45.21;96906.84;2068792;28;20434;-67
2023/09/28 08:47:48;;;;;;;6.20;3.20;;;;;;;28.98;43.53;96904.94;2069264;28;20506;-68
2023/09/28 08:48:51;;;;;;;7.73;3.30;;;;;;;29.08;42.99;96910.06;2066807;28;20471;-69
2023/09/28 08:49:54;;;;;;;6.00;3.03;;;;;;;29.06;42.63;96909.41;2066518;28;20460;-68
2023/09/28 08:51:04;;;;;;;5.97;3.50;;;;;;;29.29;41.63;96909.44;2068896;28;20434;-67
2023/09/28 08:52:06;;;;;;;4.33;2.90;;;;;;;29.62;41.38;96906.47;2068269;28;20420;-68
2023/09/28 08:53:08;;;;;;;5.40;3.23;;;;;;;29.61;41.83;96909.31;2066521;28;20974;-68
2023/09/28 08:54:12;;;;;;;9.57;2.83;;;;;;;29.61;42.43;96912.88;2069188;28;20514;-68
2023/09/28 08:55:14;;;;;;;5.63;3.03;;;;;;;29.21;42.76;96909.47;2066731;28;20423;-68
2023/09/28 08:56:17;;;;;;;5.80;3.30;;;;;;;29.05;42.89;96901.53;2070149;28;20459;-68
2023/09/28 08:57:19;;;;;;;9.07;3.20;;;;;;;29.25;43.01;96901.88;2067357;28;20451;-67
2023/09/28 08:58:22;;;;;;;7.67;3.50;;;;;;;29.46;42.78;96904.75;2065460;28;20433;-68
2023/09/28 08:59:28;;;;;;;6.37;3.40;;;;;;;28.28;45.00;96898.59;2065801;28;20951;-68
2023/09/28 09:00:30;;;;;;;9.17;2.90;;;;;;;28.87;43.73;96904.50;2065399;28;20428;-67
2023/09/28 09:01:32;;;;;;;12.47;3.50;;;;;;;29.29;43.46;96905.91;2065456;28;20432;-67
2023/09/28 09:02:35;;;;;;;10.03;3.30;;;;;;;29.57;41.97;96895.44;2066868;28;20474;-68
2023/09/28 09:03:39;;;;;;;9.60;3.30;;;;;;;29.61;41.94;96899.41;2067155;28;20432;-68
2023/09/28 09:04:42;;;;;;;7.13;2.70;;;;;;;29.54;42.39;96905.72;2069984;28;20431;-68
2023/09/28 09:05:46;;;;;;;5.43;3.37;;;;;;;30.15;41.64;96902.91;2068261;28;20424;-68
2023/09/28 09:06:48;;;;;;;12.70;3.30;;;;;;;30.14;41.04;96895.84;2068083;28;20454;-68
2023/09/28 09:07:51;;;;;;;6.17;3.30;;;;;;;30.10;41.12;96906.16;2068579;28;20554;-68
2023/09/28 09:08:56;;;;;;;8.37;3.47;;;;;;;30.13;40.86;96903.09;2065861;28;20487;-68
2023/09/28 09:09:59;;;;;;;6.53;3.00;;;;;;;30.00;40.88;96902.91;2067923;28;20791;-68
2023/09/28 09:11:00;;;;;;;7.17;2.80;;;;;;;30.69;39.66;96893.66;2068908;28;20423;-68
2023/09/28 09:12:07;;;;;;;6.10;2.87;;;;;;;30.75;39.69;96906.38;2065846;28;20435;-68
2023/09/28 09:13:16;;;;;;;6.17;2.60;;;;;;;30.98;39.22;96902.66;2067767;28;20852;-68
2023/09/28 09:14:20;;;;;;;6.80;2.87;;;;;;;30.91;39.60;96904.47;2070136;28;20543;-68
2023/09/28 09:15:22;;;;;;;7.83;3.07;;;;;;;30.40;38.65;96903.44;2068236;28;20432;-68
2023/09/28 09:16:25;;;;;;;5.57;3.17;;;;;;;30.15;39.39;96907.47;2072124;28;20415;-68
2023/09/28 09:17:33;;;;;;;11.73;2.73;;;;;;;30.43;39.60;96903.06;2068284;28;20460;-68
2023/09/28 09:18:37;;;;;;;6.20;3.33;;;;;;;30.82;38.44;96906.44;2069967;28;20518;-68
2023/09/28 09:19:38;;;;;;;8.17;2.33;;;;;;;30.89;37.93;96901.13;2065346;28;20983;-69
2023/09/28 09:20:39;;;;;;;3.70;2.60;;;;;;;31.25;36.80;96914.59;2065352;28;20421;-68
2023/09/28 09:21:43;;;;;;;4.90;2.87;;;;;;;30.66;37.84;96902.13;2065300;28;20562;-68
2023/09/28 09:22:46;;;;;;;4.10;2.10;;;;;;;31.14;38.76;96907.00;2065119;28;21086;-69
2023/09/28 09:24:04;;;;;;;7.90;2.10;;;;;;;31.61;37.63;96910.09;2070890;28;20428;-69
2023/09/28 09:25:06;;;;;;;7.97;3.10;;;;;;;32.21;36.84;96912.41;2068604;28;20424;-68
2023/09/28 09:26:17;;;;;;;6.37;3.00;;;;;;;31.90;36.79;96902.88;2065091;28;20438;-68
2023/09/28 09:27:25;;;;;;;5.60;2.30;;;;;;;32.21;36.48;96907.88;2064856;28;20451;-68
2023/09/28 09:28:32;;;;;;;9.03;3.40;;;;;;;31.59;36.48;96906.75;2065343;28;20420;-68
2023/09/28 09:29:34;;;;;;;9.10;2.83;;;;;;;32.19;37.59;96909.09;2074438;28;20459;-68
2023/09/28 09:30:35;;;;;;;7.70;2.20;;;;;;;32.79;35.85;96908.56;2073893;28;20460;-68
2023/09/28 09:31:43;;;;;;;6.57;2.40;;;;;;;32.24;34.92;96906.63;2066827;28;20439;-69
2023/09/28 09:32:44;;;;;;;9.53;3.00;;;;;;;32.37;35.84;96906.69;2067303;28;20463;-69
2023/09/28 09:33:49;;;;;;;4.30;2.77;;;;;;;31.93;35.62;96905.16;2068786;28;20435;-68
2023/09/28 09:34:52;;;;;;;6.57;2.40;;;;;;;31.64;34.18;96906.22;2066275;28;20498;-69
2023/09/28 09:35:53;;;;;;;4.50;1.90;;;;;;;31.43;33.37;96897.94;2068391;28;20497;-69
2023/09/28 09:36:56;;;;;;;7.90;2.03;;;;;;;30.52;34.95;96901.13;2066829;28;20432;-69
2023/09/28 09:37:58;;;;;;;8.70;2.83;;;;;;;30.97;35.43;96890.22;2068959;28;20446;-68
2023/09/28 09:38:59;;;;;;;11.30;2.60;;;;;;;31.77;34.52;96900.06;2069597;28;20511;-69
2023/09/28 09:40:12;;;;;;;4.97;1.60;;;;;;;32.34;32.11;96903.53;2066870;28;20447;-68
2023/09/28 09:41:14;;;;;;;9.93;3.07;;;;;;;32.59;32.18;96903.03;2069105;28;20423;-68
2023/09/28 09:42:26;;;;;;;5.17;1.83;;;;;;;32.43;31.84;96904.22;2067584;28;20429;-68
2023/09/28 09:43:34;;;;;;;6.20;1.90;;;;;;;32.21;32.80;96902.47;2068675;28;20522;-69
2023/09/28 09:44:36;;;;;;;10.07;2.73;;;;;;;32.47;32.92;96902.75;2068484;28;20432;-68
2023/09/28 09:45:38;;;;;;;4.00;1.87;;;;;;;31.24;33.65;96907.50;2067332;28;20462;-68
2023/09/28 09:46:39;;;;;;;4.43;2.17;;;;;;;31.40;33.91;96903.72;2070215;28;21024;-69
2023/09/28 09:47:47;;;;;;;9.03;2.40;;;;;;;32.21;33.17;96907.88;2064681;28;20460;-68
2023/09/28 09:48:49;;;;;;;3.13;2.27;;;;;;;32.70;32.88;96903.28;2064781;28;20424;-68
2023/09/28 09:49:51;;;;;;;4.70;1.90;;;;;;;33.14;32.14;96897.56;2065122;28;20424;-69
2023/09/28 09:50:55;;;;;;;4.63;1.80;;;;;;;32.50;31.67;96899.69;2066548;28;20436;-68
2023/09/28 09:52:02;;;;;;;4.70;1.80;;;;;;;33.51;31.39;96903.47;2067579;28;20847;-68
2023/09/28 09:53:07;;;;;;;4.27;1.80;;;;;;;33.05;32.11;96903.19;2067747;28;20519;-68
2023/09/28 09:54:11;;;;;;;3.93;2.00;;;;;;;33.62;31.22;96912.84;2065257;28;20923;-69
2023/09/28 09:55:14;;;;;;;3.50;1.90;;;;;;;33.98;30.93;96906.13;2064644;28;20420;-69
2023/09/28 09:56:16;;;;;;;3.97;2.20;;;;;;;33.49;32.07;96909.06;2066310;28;20428;-69
2023/09/28 09:57:20;;;;;;;4.27;1.83;;;;;;;33.58;31.93;96898.88;2064495;28;20456;-68
2023/09/28 09:58:27;;;;;;;2.80;1.73;;;;;;;34.26;31.79;96903.16;2064933;28;20428;-69
2023/09/28 09:59:31;;;;;;;6.77;2.30;;;;;;;33.47;32.34;96907.63;2068041;28;20431;-69
2023/09/28 10:00:34;;;;;;;5.50;1.90;;;;;;;32.35;33.01;96902.53;2064838;28;20433;-69
2023/09/28 10:01:39;;;;;;;3.93;1.90;;;;;;;33.64;31.81;96905.34;2065015;28;20432;-68
2023/09/28 10:02:42;;;;;;;6.20;2.10;;;;;;;33.45;32.46;96904.31;2068564;28;20451;-68
2023/09/28 10:03:51;;;;;;;9.63;2.20;;;;;;;33.46;32.40;96908.66;2067777;28;20446;-68
2023/09/28 10:04:54;;;;;;;5.57;2.40;;;;;;;33.34;32.63;96898.47;2068915;28;20423;-69
2023/09/28 10:06:00;;;;;;;8.63;2.23;;;;;;;33.59;32.59;96902.44;2067682;28;20523;-68
2023/09/28 10:07:03;;;;;;;5.27;1.53;;;;;;;34.21;31.08;96897.56;2066046;28;20516;-69
2023/09/28 10:08:07;;;;;;;8.30;1.93;;;;;;;33.89;31.92;96893.88;2066983;28;20431;-68
2023/09/28 10:09:10;;;;;;;5.17;2.13;;;;;;;34.36;31.80;96899.19;2067816;28;20957;-69
2023/09/28 10:10:18;;;;;;;5.37;2.83;;;;;;;33.96;32.37;96898.22;2068774;28;20428;-69
2023/09/28 10:11:21;;;;;;;3.40;2.03;;;;;;;32.87;33.09;96901.09;2068090;28;20439;-69
2023/09/28 10:12:25;;;;;;;3.57;2.10;;;;;;;33.98;31.98;96890.75;2069015;28;20466;-69
2023/09/28 10:13:31;;;;;;;4.20;1.80;;;;;;;34.61;32.09;96889.28;2064935;28;21026;-69
2023/09/28 10:14:34;;;;;;;4.27;2.90;;;;;;;34.52;31.49;96895.19;2064993;28;20485;-69
2023/09/28 10:15:37;;;;;;;7.13;1.83;;;;;;;34.02;32.24;96893.88;2064982;28;20435;-69
2023/09/28 10:16:41;;;;;;;3.03;2.00;;;;;;;34.88;31.66;96893.78;2067412;28;20518;-69
2023/09/28 10:17:44;;;;;;;5.20;1.93;;;;;;;35.41;30.62;96898.03;2064272;28;20483;-69
2023/09/28 10:18:47;;;;;;;9.53;2.10;;;;;;;35.75;30.17;96887.72;2066900;28;20787;-70
2023/09/28 10:19:50;;;;;;;3.40;2.17;;;;;;;35.98;30.13;96889.81;2066796;28;20938;-70
2023/09/28 10:20:51;;;;;;;4.10;2.00;;;;;;;35.46;31.22;96896.31;2069580;28;20423;-69
2023/09/28 10:21:55;;;;;;;9.23;2.20;;;;;;;36.36;30.66;96888.78;2069147;28;20431;-70
2023/09/28 10:23:10;;;;;;;2.60;1.80;;;;;;;36.49;28.69;96893.22;2064408;28;20450;-70
2023/09/28 10:24:14;;;;;;;4.00;1.93;;;;;;;35.36;29.07;96892.44;2064852;28;20427;-69
2023/09/28 10:25:16;;;;;;;7.53;1.90;;;;;;;33.41;29.99;96895.78;2065974;28;20426;-69
2023/09/28 10:26:18;;;;;;;2.80;2.00;;;;;;;33.69;29.50;96895.53;2070971;28;20782;-68
2023/09/28 10:27:20;;;;;;;4.17;1.57;;;;;;;33.36;30.27;96882.03;2069503;28;20455;-68
2023/09/28 10:28:21;;;;;;;4.20;1.90;;;;;;;32.93;30.67;96887.78;2064523;28;20478;-68
2023/09/28 10:29:30;;;;;;;3.40;1.93;;;;;;;33.59;30.84;96891.59;2065031;28;20452;-68
2023/09/28 10:30:32;;;;;;;3.63;1.60;;;;;;;33.92;30.85;96885.34;2064545;28;20521;-68
2023/09/28 10:31:42;;;;;;;7.93;1.97;;;;;;;34.31;30.61;96887.09;2065375;28;20428;-68
2023/09/28 10:33:09;;;;;;;4.30;1.63;;;;;;;34.78;29.40;96877.94;2065209;28;20452;-68
2023/09/28 10:34:19;;;;;;;4.63;1.70;;;;;;;35.03;29.22;96875.31;2068098;28;20423;-69
2023/09/28 10:35:26;;;;;;;4.13;1.47;;;;;;;34.49;29.61;96869.34;2066829;28;20432;-69
2023/09/28 10:36:28;;;;;;;3.20;2.00;;;;;;;35.03;29.82;96877.19;2068310;28;20830;-68
2023/09/28 10:37:31;;;;;;;7.07;2.07;;;;;;;34.81;30.12;96874.81;2067345;28;20797;-69
2023/09/28 10:38:33;;;;;;;7.53;1.60;;;;;;;33.68;30.79;96876.81;2066217;28;20489;-68
2023/09/28 10:39:35;;;;;;;9.57;1.93;;;;;;;32.65;30.85;96884.13;2068159;28;20514;-68
2023/09/28 10:40:36;;;;;;;7.13;1.30;;;;;;;32.10;31.10;96876.00;2067822;28;20459;-69
2023/09/28 10:41:52;;;;;;;6.30;1.87;;;;;;;32.82;30.36;96883.78;2067740;28;20973;-68
2023/09/28 10:43:09;;;;;;;4.20;1.70;;;;;;;32.36;30.48;96874.47;2067129;28;20460;-69
2023/09/28 10:44:16;;;;;;;9.23;2.37;;;;;;;31.55;31.32;96875.81;2068764;28;20432;-68
2023/09/28 10:45:26;;;;;;;11.20;1.90;;;;;;;30.97;31.50;96875.91;2066642;28;20432;-69
2023/09/28 10:46:29;;;;;;;3.27;1.73;;;;;;;31.25;31.37;96878.69;2068253;28;20925;-68
2023/09/28 10:47:32;;;;;;;4.73;1.50;;;;;;;31.33;30.87;96878.53;2067636;28;20898;-68
2023/09/28 10:48:39;;;;;;;2.73;1.47;;;;;;;31.94;30.56;96879.03;2068292;28;20757;-68
2023/09/28 10:49:41;;;;;;;4.57;1.50;;;;;;;32.75;29.33;96883.78;2067533;28;20428;-68
2023/09/28 10:50:46;;;;;;;3.30;1.10;;;;;;;33.63;30.00;96880.13;2069929;28;20459;-69
2023/09/28 10:51:48;;;;;;;3.23;1.37;;;;;;;34.62;29.30;96880.13;2066716;28;20463;-68
2023/09/28 10:52:50;;;;;;;2.37;1.60;;;;;;;35.40;29.07;96889.06;2067905;28;20491;-68
2023/09/28 10:53:51;;;;;;;3.70;1.83;;;;;;;34.06;29.21;96878.84;2064559;28;20478;-68
2023/09/28 10:54:54;;;;;;;2.60;1.30;;;;;;;32.40;30.13;96873.88;2067435;28;20428;-68
2023/09/28 10:55:55;;;;;;;3.70;1.43;;;;;;;31.43;31.25;96879.03;2070634;28;20428;-69
2023/09/28 10:56:58;;;;;;;3.70;1.50;;;;;;;30.78;32.26;96873.66;2067746;28;20522;-68
2023/09/28 10:58:04;;;;;;;4.03;1.70;;;;;;;31.68;31.96;96883.19;2067789;28;20914;-68
2023/09/28 10:59:07;;;;;;;5.17;1.77;;;;;;;30.70;31.77;96881.88;2067380;28;20915;-68
2023/09/28 11:00:12;;;;;;;3.00;1.43;;;;;;;30.04;32.12;96884.53;2067434;28;20416;-68
2023/09/28 11:01:14;;;;;;;3.10;1.37;;;;;;;30.23;31.52;96888.50;2067416;28;20428;-68
2023/09/28 11:02:18;;;;;;;2.47;1.37;;;;;;;30.80;30.64;96875.31;2066180;28;21067;-69
2023/09/28 11:03:19;;;;;;;1.93;1.23;;;;;;;31.60;29.73;96886.84;2068952;28;20439;-68
2023/09/28 11:04:22;;;;;;;3.40;1.10;;;;;;;31.77;30.37;96881.19;2067039;28;20438;-68
2023/09/28 11:05:40;;;;;;;2.27;1.27;;;;;;;31.42;30.58;96888.16;2068280;28;20522;-69
2023/09/28 11:06:43;;;;;;;4.20;1.50;;;;;;;30.05;30.92;96894.28;2069483;28;20901;-68
2023/09/28 11:07:48;;;;;;;2.97;1.33;;;;;;;29.72;31.35;96890.03;2067166;28;20558;-68
2023/09/28 11:08:50;;;;;;;2.40;1.07;;;;;;;30.19;31.38;96892.59;2067825;28;20577;-68
2023/09/28 11:09:51;;;;;;;2.33;1.30;;;;;;;30.01;32.03;96885.72;2065893;28;20432;-68
2023/09/28 11:10:55;;;;;;;3.70;1.70;;;;;;;31.07;31.95;96896.16;2064138;28;20464;-68
2023/09/28 11:11:57;;;;;;;3.30;1.50;;;;;;;31.67;30.86;96895.88;2064059;28;20424;-67
2023/09/28 11:12:58;;;;;;;3.50;1.60;;;;;;;31.85;30.60;96897.25;2069007;28;20432;-68
2023/09/28 11:14:00;;;;;;;2.87;1.57;;;;;;;32.66;30.39;96901.16;2066568;28;20436;-69
2023/09/28 11:15:05;;;;;;;3.20;1.50;;;;;;;33.35;29.76;96889.31;2065295;28;20460;-68
2023/09/28 11:16:07;;;;;;;2.60;1.60;;;;;;;32.24;30.42;96885.03;2066987;28;20426;-68
2023/09/28 11:17:09;;;;;;;3.87;1.90;;;;;;;32.33;30.51;96889.22;2071092;28;20423;-69
2023/09/28 11:18:12;;;;;;;3.70;1.80;;;;;;;33.12;30.20;96886.16;2071892;28;20463;-69
2023/09/28 11:19:14;;;;;;;3.10;1.50;;;;;;;32.08;30.62;96894.25;2068291;28;20444;-69
2023/09/28 11:20:16;;;;;;;2.47;1.40;;;;;;;32.42;30.65;96887.19;2065534;28;20447;-69
2023/09/28 11:21:18;;;;;;;2.63;1.40;;;;;;;31.92;31.55;96882.75;2070353;28;20484;-69
2023/09/28 11:22:19;;;;;;;3.20;1.80;;;;;;;32.72;30.87;96881.44;2063690;28;20534;-68
2023/09/28 11:23:21;;;;;;;2.80;1.47;;;;;;;31.95;31.25;96889.63;2066193;28;20822;-68
2023/09/28 11:24:22;;;;;;;2.63;1.53;;;;;;;32.31;29.94;96888.56;2064291;28;20420;-68
2023/09/28 11:25:26;;;;;;;1.50;1.00;;;;;;;31.56;29.70;96875.59;2064499;28;20458;-69
2023/09/28 11:26:46;;;;;;;1.93;0.90;;;;;;;30.59;30.18;96877.78;2068628;28;20431;-69
2023/09/28 11:27:48;;;;;;;2.47;1.37;;;;;;;31.24;30.44;96883.25;2066754;28;20459;-68
2023/09/28 11:28:50;;;;;;;2.30;1.50;;;;;;;31.47;29.96;96878.66;2067120;28;20452;-69
2023/09/28 11:29:56;;;;;;;4.40;1.13;;;;;;;31.03;30.49;96881.38;2068469;28;20483;-68
2023/09/28 11:31:08;;;;;;;1.93;1.17;;;;;;;31.14;30.46;96879.22;2069858;28;20470;-69
2023/09/28 11:32:10;;;;;;;8.90;1.23;;;;;;;31.78;30.17;96880.16;2067815;28;20432;-68
2023/09/28 11:33:11;;;;;;;2.50;1.30;;;;;;;32.18;29.99;96885.78;2065622;28;20762;-69
2023/09/28 11:34:14;;;;;;;3.83;1.30;;;;;;;32.06;30.18;96880.97;2069683;28;20593;-68
2023/09/28 11:35:16;;;;;;;2.00;1.10;;;;;;;32.24;29.79;96882.34;2069564;28;20430;-68
2023/09/28 11:36:18;;;;;;;7.17;2.20;;;;;;;32.58;30.18;96885.97;2067613;28;20431;-69
2023/09/28 11:37:22;;;;;;;2.67;1.40;;;;;;;31.01;31.39;96885.25;2067136;28;20518;-68
2023/09/28 11:38:24;;;;;;;2.83;1.87;;;;;;;30.75;32.53;96886.66;2068603;28;20428;-69
2023/09/28 11:39:26;;;;;;;2.93;1.40;;;;;;;31.81;31.47;96890.53;2065682;28;20826;-69
2023/09/28 11:40:28;;;;;;;4.33;1.70;;;;;;;31.67;31.07;96879.69;2067016;28;20442;-66
2023/09/28 11:41:31;;;;;;;2.23;1.20;;;;;;;31.23;31.03;96880.75;2066408;28;20423;-68
2023/09/28 11:42:32;;;;;;;2.73;1.33;;;;;;;32.04;30.25;96883.00;2066056;28;20451;-68
2023/09/28 11:43:53;;;;;;;3.83;1.27;;;;;;;32.52;30.47;96882.22;2067687;28;20518;-68
2023/09/28 11:44:57;;;;;;;2.90;1.70;;;;;;;31.90;31.20;96878.56;2068639;28;20445;-68
2023/09/28 11:45:59;;;;;;;4.70;1.80;;;;;;;31.48;31.76;96874.91;2064019;28;20524;-67
2023/09/28 11:47:01;;;;;;;2.73;1.50;;;;;;;31.67;31.75;96876.97;2063779;28;20428;-67
2023/09/28 11:48:06;;;;;;;4.00;1.30;;;;;;;31.43;32.43;96872.81;2068394;28;20427;-67
2023/09/28 11:49:16;;;;;;;2.10;1.20;;;;;;;31.43;31.99;96876.34;2066025;28;20514;-67
2023/09/28 11:50:17;;;;;;;3.27;1.40;;;;;;;31.86;32.13;96866.53;2068449;28;20528;-68
2023/09/28 11:51:20;;;;;;;5.67;1.73;;;;;;;32.87;31.14;96867.78;2066582;28;20845;-68
2023/09/28 11:52:21;;;;;;;3.40;1.87;;;;;;;32.23;31.64;96861.75;2067703;28;20459;-68
2023/09/28 11:53:23;;;;;;;3.33;1.47;;;;;;;31.01;32.38;96859.16;2066746;28;20435;-67
2023/09/28 11:54:25;;;;;;;3.83;1.47;;;;;;;31.03;32.43;96856.25;2066872;28;20432;-68
2023/09/28 11:55:26;;;;;;;7.33;1.50;;;;;;;30.87;33.19;96852.81;2068207;28;20928;-68
2023/09/28 11:56:28;;;;;;;4.30;1.97;;;;;;;32.19;32.68;96849.69;2065757;28;20440;-68
2023/09/28 11:57:33;;;;;;;4.27;1.87;;;;;;;32.29;31.83;96849.28;2065018;28;20495;-68
2023/09/28 11:58:35;;;;;;;4.07;1.80;;;;;;;32.96;31.31;96844.09;2069891;28;20435;-67
2023/09/28 11:59:37;;;;;;;4.00;1.70;;;;;;;32.86;31.21;96839.09;2068387;28;20466;-68
2023/09/28 12:00:39;;;;;;;3.63;1.80;;;;;;;33.43;31.16;96833.31;2070172;28;20462;-68
2023/09/28 12:01:41;;;;;;;3.60;1.80;;;;;;;33.18;31.29;96833.94;2069392;28;20519;-68
2023/09/28 12:02:44;;;;;;;4.73;2.00;;;;;;;32.56;32.43;96842.13;2069087;28;20451;-68
2023/09/28 12:03:48;;;;;;;1.83;1.23;;;;;;;31.83;32.79;96835.31;2069287;28;20439;-66
2023/09/28 12:04:51;;;;;;;5.03;1.77;;;;;;;31.60;32.59;96830.19;2069490;28;20451;-66
2023/09/28 12:05:53;;;;;;;4.07;1.80;;;;;;;31.78;32.18;96840.50;2069177;28;20455;-66
2023/09/28 12:06:55;;;;;;;8.17;4.67;;;;;;;32.14;31.72;96819.69;2068462;28;20457;-66
2023/09/28 12:07:58;;;;;;;6.67;5.10;;;;;;;32.12;31.69;96825.31;2069250;28;20469;-65